Time;durP1;ratioP1;P1;durP2;ratioP2;P2;SDS_P1;SDS_P2;PMS_P1;PMS_P2;Temp;Humidity;BMP_temperature;BMP_pressure;BME280_temperature;BME280_humidity;BME280_pressure;Samples;Min_cycle;Max_cycle;Signal;HPM_P1;HPM_P2
2023/07/19 00:00:17;;;;;;;;;3.00;3.00;;;;;24.89;39.08;101004.47;5071190;28;46081;-66
2023/07/19 00:02:43;;;;;;;;;3.67;3.33;;;;;24.83;38.77;100997.31;5073807;28;45339;-67
2023/07/19 00:05:10;;;;;;;;;4.00;2.00;;;;;24.70;39.14;100979.47;5080202;28;45470;-70
2023/07/19 00:07:35;;;;;;;;;3.00;3.00;;;;;24.75;38.84;100989.38;5058622;28;45326;-67
2023/07/19 00:10:01;;;;;;;;;2.00;2.00;;;;;24.62;39.00;100977.88;5082422;28;46202;-67
2023/07/19 00:12:26;;;;;;;;;4.00;3.00;;;;;24.65;39.02;100999.66;5084900;28;45226;-67
2023/07/19 00:14:51;;;;;;;;;4.00;4.00;;;;;24.59;39.17;100990.75;5072646;28;45298;-69
2023/07/19 00:17:17;;;;;;;;;3.33;2.00;;;;;24.63;39.36;101006.09;5076558;28;45235;-68
2023/07/19 00:19:43;;;;;;;;;2.33;2.00;;;;;24.61;39.44;100995.19;5078436;28;46437;-70
2023/07/19 00:22:09;;;;;;;;;1.00;1.00;;;;;24.59;39.52;100994.34;5075807;28;45309;-66
2023/07/19 00:24:34;;;;;;;;;2.33;2.33;;;;;24.57;39.44;101001.69;5070108;28;45534;-69
2023/07/19 00:27:00;;;;;;;;;2.00;2.00;;;;;24.56;39.20;100991.72;5080344;28;45536;-71
2023/07/19 00:29:25;;;;;;;;;3.67;2.00;;;;;24.44;39.29;100978.38;5086113;28;45557;-66
2023/07/19 00:31:50;;;;;;;;;2.00;2.00;;;;;24.49;39.10;101000.09;5090556;28;45213;-67
2023/07/19 00:34:16;;;;;;;;;2.00;2.00;;;;;24.40;39.16;100995.75;5091532;28;45522;-73
2023/07/19 00:36:41;;;;;;;;;3.00;1.67;;;;;24.32;39.30;100990.53;5089588;28;45313;-71
2023/07/19 00:39:07;;;;;;;;;1.33;1.33;;;;;24.34;39.48;100999.56;5091824;28;45095;-66
2023/07/19 00:41:32;;;;;;;;;3.33;2.00;;;;;23.93;39.82;100927.84;5072425;28;44971;-73
2023/07/19 00:43:58;;;;;;;;;2.33;2.33;;;;;24.31;39.87;100999.66;5088758;28;45226;-73
2023/07/19 00:46:23;;;;;;;;;5.00;3.00;;;;;24.29;40.12;100996.06;5090353;28;44986;-72
2023/07/19 00:48:49;;;;;;;;;2.33;2.33;;;;;24.21;39.91;100985.34;5071719;28;45226;-66
2023/07/19 00:51:15;;;;;;;;;0.67;0.67;;;;;24.21;39.91;100992.66;5089026;28;45440;-66
2023/07/19 00:53:41;;;;;;;;;5.00;3.00;;;;;24.20;39.94;100991.72;5087854;28;45051;-69
2023/07/19 00:56:09;;;;;;;;;2.00;2.00;;;;;24.21;40.20;100999.00;5086936;28;45102;-72
2023/07/19 00:58:35;;;;;;;;;3.00;3.00;;;;;24.14;40.27;100980.06;5089645;28;45462;-67
2023/07/19 01:01:01;;;;;;;;;3.00;1.33;;;;;24.22;40.22;100994.41;5085116;28;45374;-73
2023/07/19 01:03:27;;;;;;;;;3.33;2.00;;;;;24.13;40.02;100979.19;5088912;28;45160;-66
2023/07/19 01:05:52;;;;;;;;;2.00;2.00;;;;;23.95;40.34;100947.81;5087805;28;45189;-68
2023/07/19 01:08:18;;;;;;;;;3.33;2.33;;;;;24.21;40.10;100998.09;5089925;27;45656;-70
2023/07/19 01:10:44;;;;;;;;;1.33;1.33;;;;;24.15;40.02;100992.78;5087009;28;45252;-68
2023/07/19 01:13:11;;;;;;;;;3.00;2.00;;;;;24.14;40.18;100999.19;5090475;28;45033;-68
2023/07/19 01:15:37;;;;;;;;;1.33;1.33;;;;;24.01;39.74;100974.94;5070180;28;45330;-69
2023/07/19 01:18:03;;;;;;;;;2.33;1.00;;;;;24.09;39.95;100993.88;5088778;28;46386;-65
2023/07/19 01:20:28;;;;;;;;;1.00;1.00;;;;;24.08;39.78;100992.06;5088638;28;45460;-70
2023/07/19 01:22:55;;;;;;;;;1.00;1.00;;;;;23.86;39.79;100948.94;5089362;28;44995;-68
2023/07/19 01:25:21;;;;;;;;;4.00;2.00;;;;;24.07;39.69;100995.72;5085873;28;45325;-68
2023/07/19 01:27:47;;;;;;;;;1.00;1.00;;;;;24.07;39.68;100992.97;5087471;28;45170;-70
2023/07/19 01:30:13;;;;;;;;;1.00;1.00;;;;;24.06;39.37;100992.09;5089272;28;45352;-65
2023/07/19 01:32:38;;;;;;;;;2.67;2.67;;;;;24.07;39.62;100992.97;5089309;28;45071;-71
2023/07/19 01:35:04;;;;;;;;;2.67;2.67;;;;;24.08;39.75;100998.41;5089975;28;45167;-69
2023/07/19 01:37:29;;;;;;;;;1.00;1.00;;;;;23.96;39.45;100976.91;5089501;28;45679;-68
2023/07/19 01:39:55;;;;;;;;;2.67;2.00;;;;;24.05;39.50;100993.03;5088595;28;45135;-66
2023/07/19 01:42:20;;;;;;;;;3.33;2.00;;;;;24.05;39.67;100995.75;5070982;28;45138;-72
2023/07/19 01:44:46;;;;;;;;;4.67;3.00;;;;;24.02;39.88;101001.31;5089515;28;45245;-73
2023/07/19 01:47:11;;;;;;;;;4.00;3.00;;;;;24.01;39.58;100996.78;5081089;27;45203;-67
2023/07/19 01:49:39;;;;;;;;;2.00;2.00;;;;;23.92;39.79;100986.09;5084959;28;45155;-68
2023/07/19 01:52:04;;;;;;;;;3.00;3.00;;;;;23.99;39.75;101001.38;5090047;28;45032;-67
2023/07/19 01:54:30;;;;;;;;;1.00;1.00;;;;;23.97;40.17;101000.50;5091024;28;45144;-66
2023/07/19 01:56:55;;;;;;;;;3.67;2.33;;;;;23.94;39.78;101006.06;5087510;28;47424;-67
2023/07/19 01:59:20;;;;;;;;;5.67;2.00;;;;;23.92;40.09;101008.84;5091335;28;45168;-68
2023/07/19 02:01:46;;;;;;;;;4.33;2.00;;;;;23.92;40.07;101014.28;5087738;28;45302;-66
2023/07/19 02:04:11;;;;;;;;;3.00;1.67;;;;;23.90;40.00;101007.06;5090076;28;45222;-65
2023/07/19 02:06:37;;;;;;;;;3.33;3.00;;;;;23.87;40.29;101009.88;5088974;28;45230;-67
2023/07/19 02:09:02;;;;;;;;;1.00;1.00;;;;;23.65;40.35;100965.81;5085676;28;45091;-68
2023/07/19 02:11:27;;;;;;;;;3.00;1.33;;;;;23.85;40.34;101014.47;5088939;28;45110;-67
2023/07/19 02:13:53;;;;;;;;;2.00;2.00;;;;;23.86;40.47;101019.00;5090091;28;45398;-70
2023/07/19 02:16:18;;;;;;;;;4.00;2.33;;;;;23.79;40.12;101007.31;5085705;28;45640;-72
2023/07/19 02:18:43;;;;;;;;;3.67;2.33;;;;;23.79;40.15;101011.84;5090474;28;45096;-68
2023/07/19 02:21:09;;;;;;;;;3.00;2.00;;;;;23.77;40.51;101009.16;5090741;27;45532;-68
2023/07/19 02:23:34;;;;;;;;;1.67;1.67;;;;;23.79;40.60;101020.97;5093304;28;45012;-70
2023/07/19 02:26:00;;;;;;;;;2.33;2.00;;;;;23.75;40.33;101024.69;5093396;28;45646;-73
2023/07/19 02:28:25;;;;;;;;;2.67;1.00;;;;;23.70;40.67;101023.91;5089607;28;45236;-76
2023/07/19 02:30:51;;;;;;;;;1.67;1.67;;;;;23.66;40.61;101014.88;5090292;28;45146;-75
2023/07/19 02:33:16;;;;;;;;;3.33;2.00;;;;;23.58;40.65;101007.78;5092062;28;45327;-68
2023/07/19 02:35:42;;;;;;;;;3.00;3.00;;;;;23.61;40.81;101018.63;5093693;28;45976;-69
2023/07/19 02:38:08;;;;;;;;;2.00;2.00;;;;;23.55;41.16;101012.41;5093524;28;45244;-74
2023/07/19 02:40:34;;;;;;;;;3.67;1.00;;;;;23.45;41.08;101002.66;5092061;28;45417;-75
2023/07/19 02:42:59;;;;;;;;;3.33;2.00;;;;;23.53;41.21;101022.44;5093308;28;45693;-70
2023/07/19 02:45:24;;;;;;;;;3.00;3.00;;;;;23.25;41.79;100989.47;5085480;28;45630;-72
2023/07/19 02:47:50;;;;;;;;;2.33;2.33;;;;;23.43;41.65;101028.13;5089867;28;45462;-71
2023/07/19 02:50:20;;;;;;;;;3.00;2.00;;;;;23.32;42.32;101015.66;5086356;28;45405;-73
2023/07/19 02:52:46;;;;;;;;;2.00;2.00;;;;;23.31;42.34;101022.06;5094605;28;45759;-69
2023/07/19 02:55:12;;;;;;;;;2.00;2.00;;;;;23.30;42.51;101038.44;5069097;28;46537;-66
2023/07/19 02:57:38;;;;;;;;;6.33;3.67;;;;;23.24;42.85;101047.63;5091444;28;45032;-70
2023/07/19 03:00:04;;;;;;;;;2.33;2.00;;;;;23.25;42.51;101034.91;5090802;28;45278;-68
2023/07/19 03:02:30;;;;;;;;;4.67;3.00;;;;;23.26;42.89;101044.88;5085400;28;45321;-67
2023/07/19 03:04:56;;;;;;;;;3.00;1.67;;;;;23.22;43.00;101041.31;5084011;28;45188;-67
2023/07/19 03:07:23;;;;;;;;;3.00;2.00;;;;;22.96;43.03;101001.84;5088741;28;45217;-67
2023/07/19 03:09:49;;;;;;;;;3.33;2.00;;;;;22.91;43.28;101001.03;5092749;28;45197;-71
2023/07/19 03:12:14;;;;;;;;;1.00;1.00;;;;;23.09;43.38;101056.16;5092890;28;45220;-67
2023/07/19 03:14:39;;;;;;;;;5.67;4.00;;;;;23.04;43.50;101052.59;5093641;28;45783;-68
2023/07/19 03:17:05;;;;;;;;;3.00;3.00;;;;;23.02;43.88;101057.19;5084277;28;45851;-74
2023/07/19 03:19:30;;;;;;;;;3.33;1.33;;;;;22.94;43.54;101046.41;5091674;28;44917;-70
2023/07/19 03:21:56;;;;;;;;;1.67;1.67;;;;;23.03;43.74;101057.13;5093556;28;45066;-68
2023/07/19 03:24:21;;;;;;;;;3.00;2.00;;;;;22.87;44.22;101033.84;5086976;28;46254;-71
2023/07/19 03:26:46;;;;;;;;;2.00;2.00;;;;;22.83;44.12;101033.00;5090805;28;45185;-72
2023/07/19 03:29:12;;;;;;;;;2.00;2.00;;;;;22.94;44.32;101060.94;5092024;27;45178;-74
2023/07/19 03:31:37;;;;;;;;;1.67;1.67;;;;;22.74;44.29;101036.81;5090163;28;45426;-70
2023/07/19 03:34:03;;;;;;;;;5.00;3.67;;;;;22.71;44.52;101035.97;5090204;28;45704;-70
2023/07/19 03:36:28;;;;;;;;;2.67;2.00;;;;;22.86;44.55;101064.75;5070648;28;45447;-67
2023/07/19 03:38:54;;;;;;;;;3.00;2.67;;;;;22.78;44.81;101067.59;5091299;28;45373;-66
2023/07/19 03:41:19;;;;;;;;;2.33;2.00;;;;;22.67;44.78;101070.56;5093032;28;44948;-66
2023/07/19 03:43:44;;;;;;;;;3.33;2.00;;;;;22.56;44.94;101065.28;5087726;28;47458;-67
2023/07/19 03:46:10;;;;;;;;;3.00;3.00;;;;;22.48;44.81;101059.09;5087878;28;45263;-65
2023/07/19 03:48:37;;;;;;;;;2.00;2.00;;;;;22.47;44.52;101080.88;5090003;28;45261;-71
2023/07/19 03:51:03;;;;;;;;;4.33;4.33;;;;;22.36;44.54;101086.53;5090759;28;45296;-67
2023/07/19 03:53:29;;;;;;;;;3.00;3.00;;;;;22.23;44.62;101081.25;5071643;28;47086;-71
2023/07/19 03:55:59;;;;;;;;;3.33;2.00;;;;;22.16;44.41;101098.63;5090435;28;45022;-70
2023/07/19 03:58:25;;;;;;;;;4.00;2.67;;;;;22.18;43.99;101102.22;5084869;28;45195;-70
2023/07/19 04:00:54;;;;;;;;;2.67;2.00;;;;;22.11;43.97;101089.63;5091640;28;45019;-69
2023/07/19 04:03:20;;;;;;;;;1.67;1.67;;;;;22.05;43.85;101103.31;5092444;28;46500;-70
2023/07/19 04:05:46;;;;;;;;;3.00;1.00;;;;;21.91;43.70;101089.94;5091675;28;44920;-68
2023/07/19 04:08:13;;;;;;;;;1.67;1.67;;;;;21.99;43.59;101106.13;5089861;28;45050;-69
2023/07/19 04:10:39;;;;;;;;;1.67;1.67;;;;;21.84;43.20;101091.81;5090533;28;45032;-69
2023/07/19 04:13:04;;;;;;;;;2.00;0.00;;;;;21.96;43.37;101125.22;5090284;27;45989;-71
2023/07/19 04:15:30;;;;;;;;;2.50;2.50;;;;;21.94;43.46;101124.34;5089849;28;45038;-68
2023/07/19 04:17:55;;;;;;;;;2.00;2.00;;;;;21.82;43.51;101103.66;5087356;28;45400;-75
2023/07/19 04:20:22;;;;;;;;;2.00;2.00;;;;;21.90;44.03;101116.22;5071895;28;45373;-70
2023/07/19 04:22:48;;;;;;;;;3.00;1.33;;;;;21.97;43.83;101125.19;5089529;28;45200;-69
2023/07/19 04:25:13;;;;;;;;;2.00;2.00;;;;;21.98;43.35;101128.84;5090185;28;45302;-70
2023/07/19 04:27:39;;;;;;;;;1.00;1.00;;;;;21.90;43.42;101137.09;5091937;28;45575;-70
2023/07/19 04:30:06;;;;;;;;;2.67;1.00;;;;;21.78;43.47;101129.09;5090344;28;45455;-68
2023/07/19 04:32:33;;;;;;;;;3.00;1.67;;;;;21.78;43.79;101137.25;5090835;28;45436;-69
2023/07/19 04:34:58;;;;;;;;;1.00;0.67;;;;;21.70;43.29;101134.66;5093609;28;45140;-69
2023/07/19 04:37:24;;;;;;;;;1.00;1.00;;;;;21.70;43.34;101130.13;5089537;28;44912;-68
2023/07/19 04:39:50;;;;;;;;;1.00;1.00;;;;;21.65;43.26;101129.28;5089108;28;45115;-70
2023/07/19 04:42:19;;;;;;;;;0.00;0.00;;;;;21.54;43.16;101110.38;5090809;28;45853;-69
2023/07/19 04:44:46;;;;;;;;;1.00;1.00;;;;;21.70;43.36;101135.56;5086793;28;45008;-72
2023/07/19 04:47:11;;;;;;;;;0.00;0.00;;;;;21.68;43.41;101139.22;5089904;28;45115;-69
2023/07/19 04:49:37;;;;;;;;;1.00;1.00;;;;;21.68;43.43;101136.50;5090840;28;45008;-72
2023/07/19 04:52:02;;;;;;;;;2.00;2.00;;;;;21.66;43.68;101141.03;5089786;28;45801;-69
2023/07/19 04:54:27;;;;;;;;;4.00;2.00;;;;;21.67;43.70;101131.97;5089333;28;45283;-69
2023/07/19 04:56:53;;;;;;;;;4.00;4.00;;;;;21.71;43.54;101137.38;5089535;28;45586;-70
2023/07/19 04:59:18;;;;;;;;;1.67;1.67;;;;;21.72;43.50;101143.69;5090154;28;45019;-69
2023/07/19 05:01:44;;;;;;;;;1.00;1.00;;;;;21.67;43.72;101137.41;5089632;28;45325;-69
2023/07/19 05:04:09;;;;;;;;;2.33;1.00;;;;;21.72;43.45;101147.31;5071652;28;44992;-70
2023/07/19 05:06:35;;;;;;;;;0.67;0.67;;;;;21.68;43.66;101128.34;5071674;28;45587;-73
2023/07/19 05:09:00;;;;;;;;;1.00;1.00;;;;;21.77;43.52;101143.63;5089584;28;45690;-71
2023/07/19 05:11:25;;;;;;;;;1.67;1.67;;;;;21.77;43.38;101147.25;5071472;28;47422;-70
2023/07/19 05:13:51;;;;;;;;;2.00;1.00;;;;;21.80;43.56;101147.22;5082547;28;45011;-72
2023/07/19 05:16:16;;;;;;;;;3.00;2.00;;;;;21.80;43.50;101155.38;5065397;28;45168;-72
2023/07/19 05:18:42;;;;;;;;;1.00;1.00;;;;;21.62;43.62;101117.56;5091196;28;45185;-74
2023/07/19 05:21:08;;;;;;;;;3.00;1.00;;;;;21.69;43.47;101144.63;5071562;28;46561;-72
2023/07/19 05:23:33;;;;;;;;;1.00;1.00;;;;;21.72;43.61;101152.75;5065106;28;45308;-69
2023/07/19 05:25:58;;;;;;;;;1.00;1.00;;;;;21.67;43.58;101138.31;5089729;28;45125;-70
2023/07/19 05:28:24;;;;;;;;;0.33;0.33;;;;;21.71;43.94;101161.84;5087460;28;45061;-69
2023/07/19 05:30:49;;;;;;;;;2.00;2.00;;;;;21.12;43.88;101039.31;5088531;28;45344;-68
2023/07/19 05:33:15;;;;;;;;;2.67;1.67;;;;;21.71;43.86;101141.88;5088730;28;45089;-68
2023/07/19 05:35:42;;;;;;;;;2.00;2.00;;;;;21.81;44.04;101150.81;5069194;28;45236;-69
2023/07/19 05:38:08;;;;;;;;;4.67;3.00;;;;;21.72;44.13;101135.53;5086037;28;45325;-69
2023/07/19 05:40:33;;;;;;;;;2.67;2.00;;;;;21.83;44.64;101149.88;5089267;28;45072;-69
2023/07/19 05:42:58;;;;;;;;;1.00;1.00;;;;;21.78;44.63;101156.28;5090225;28;45310;-69
2023/07/19 05:45:23;;;;;;;;;2.67;2.00;;;;;21.59;45.10;101158.38;5068681;28;46236;-69
2023/07/19 05:47:49;;;;;;;;;2.33;2.00;;;;;21.55;45.50;101160.22;5088956;28;45580;-69
2023/07/19 05:50:14;;;;;;;;;3.67;2.00;;;;;21.53;45.64;101168.41;5068099;28;46243;-70
2023/07/19 05:52:39;;;;;;;;;4.00;3.00;;;;;21.45;45.49;101143.09;5085842;28;48153;-69
2023/07/19 05:55:08;;;;;;;;;5.33;3.67;;;;;21.56;45.35;101161.13;5088562;27;45570;-69
2023/07/19 05:57:34;;;;;;;;;3.33;2.00;;;;;21.60;44.94;101168.34;5070525;28;45251;-67
2023/07/19 06:00:13;;;;;;;;;2.00;2.00;;;;;21.54;45.23;101163.88;5084252;28;45193;-69
2023/07/19 06:02:39;;;;;;;;;3.00;2.00;;;;;21.50;45.08;101170.28;5088371;28;45200;-72
2023/07/19 06:05:05;;;;;;;;;4.33;2.67;;;;;21.38;44.96;101179.41;5086487;28;46395;-72
2023/07/19 06:07:30;;;;;;;;;3.00;3.00;;;;;21.38;45.48;101181.25;5089311;28;45005;-68
2023/07/19 06:09:56;;;;;;;;;2.33;2.33;;;;;21.45;45.75;101183.88;5089043;28;47379;-70
2023/07/19 06:12:21;;;;;;;;;4.00;4.00;;;;;21.51;46.10;101185.66;5082596;28;45114;-69
2023/07/19 06:14:46;;;;;;;;;13.67;11.00;;;;;21.51;46.40;101172.97;5086807;28;45253;-68
2023/07/19 06:17:12;;;;;;;;;3.00;3.00;;;;;21.59;46.42;101175.56;5087181;28;45284;-72
2023/07/19 06:19:37;;;;;;;;;13.67;12.33;;;;;21.71;46.57;101189.03;5088714;28;45380;-69
2023/07/19 06:22:03;;;;;;;;;1.00;1.00;;;;;21.77;46.63;101193.47;5089070;28;45471;-69
2023/07/19 06:24:28;;;;;;;;;2.67;2.00;;;;;21.86;46.81;101185.22;5087890;28;45108;-69
2023/07/19 06:26:57;;;;;;;;;1.00;1.00;;;;;21.89;46.92;101178.81;5082388;28;45541;-69
2023/07/19 06:29:23;;;;;;;;;2.33;2.00;;;;;21.99;46.98;101183.22;5085937;28;45982;-69
2023/07/19 06:31:48;;;;;;;;;3.00;1.00;;;;;21.82;46.84;101160.78;5086682;28;45212;-68
2023/07/19 06:34:14;;;;;;;;;3.00;3.00;;;;;22.05;47.32;101183.13;5088596;28;45119;-68
2023/07/19 06:36:39;;;;;;;;;34.50;33.00;;;;;22.10;47.77;101183.06;5090094;28;45634;-69
2023/07/19 06:39:04;;;;;;;;;6.67;6.33;;;;;22.11;47.39;101163.09;5088843;28;45154;-68
2023/07/19 06:41:30;;;;;;;;;2.00;2.00;;;;;22.15;48.13;101180.28;5089249;28;45036;-68
2023/07/19 06:43:57;;;;;;;;;1.67;1.33;;;;;22.15;48.11;101180.28;5089474;28;45173;-68
2023/07/19 06:46:22;;;;;;;;;6.33;5.00;;;;;22.19;47.98;101180.22;5087598;28;45305;-68
2023/07/19 06:48:48;;;;;;;;;1.67;1.33;;;;;22.24;48.09;101177.41;5084922;28;46050;-70
2023/07/19 06:51:13;;;;;;;;;2.00;1.00;;;;;22.19;48.38;101182.03;5087810;28;45263;-71
2023/07/19 06:53:39;;;;;;;;;1.00;1.00;;;;;22.16;48.66;101187.50;5088303;28;45001;-69
2023/07/19 06:56:05;;;;;;;;;3.67;0.67;;;;;22.09;48.67;101163.13;5070691;28;45311;-68
2023/07/19 06:58:30;;;;;;;;;1.00;0.00;;;;;22.20;48.84;101182.00;5088365;28;45439;-70
2023/07/19 07:00:56;;;;;;;;;1.00;1.00;;;;;22.02;48.98;101160.50;5088704;28;45223;-69
2023/07/19 07:03:22;;;;;;;;;2.33;1.00;;;;;22.23;48.76;101184.69;5086177;28;45267;-70
2023/07/19 07:05:49;;;;;;;;;4.67;3.33;;;;;22.26;48.77;101172.88;5087868;28;45091;-73
2023/07/19 07:08:15;;;;;;;;;2.00;2.00;;;;;22.41;48.38;101182.66;5091850;28;45307;-77
2023/07/19 07:10:43;;;;;;;;;2.33;1.00;;;;;22.49;48.39;101179.78;5093311;28;45339;-76
2023/07/19 07:13:09;;;;;;;;;2.67;2.67;;;;;22.57;48.24;101186.00;5095927;28;44877;-75
2023/07/19 07:15:35;;;;;;;;;2.33;1.67;;;;;22.34;48.43;101132.84;5078479;28;44957;-76
2023/07/19 07:18:00;;;;;;;;;3.00;3.00;;;;;22.67;48.25;101181.31;5076625;28;46914;-75
2023/07/19 07:20:26;;;;;;;;;10.67;7.33;;;;;22.80;47.84;101185.59;5093380;28;45073;-74
2023/07/19 07:22:52;;;;;;;;;2.67;2.33;;;;;22.78;47.29;101161.13;5093358;28;45327;-76
2023/07/19 07:25:19;;;;;;;;;2.33;1.33;;;;;22.99;47.75;101180.75;5092863;28;45341;-76
2023/07/19 07:27:44;;;;;;;;;5.33;4.00;;;;;23.01;47.78;101187.06;5093345;28;45728;-74
2023/07/19 07:30:10;;;;;;;;;5.33;1.00;;;;;22.88;47.52;101144.63;5091275;28;45047;-74
2023/07/19 07:32:35;;;;;;;;;0.33;0.33;;;;;23.00;47.71;101169.81;5094742;28;45018;-75
2023/07/19 07:35:02;;;;;;;;;0.00;0.00;;;;;23.10;47.15;101170.59;5096148;28;45049;-76
2023/07/19 07:37:28;;;;;;;;;3.00;3.00;;;;;23.20;47.28;101182.22;5077824;28;45958;-76
2023/07/19 07:39:53;;;;;;;;;5.00;3.33;;;;;23.15;46.96;101170.50;5093244;28;45440;-75
2023/07/19 07:42:20;;;;;;;;;3.33;0.00;;;;;22.98;46.71;101166.25;5089810;28;45290;-74
2023/07/19 07:44:46;;;;;;;;;1.67;1.67;;;;;22.91;46.88;101175.44;5072925;28;45390;-73
2023/07/19 07:47:11;;;;;;;;;0.00;0.00;;;;;22.62;47.38;101154.16;5093990;28;45627;-76
2023/07/19 07:49:37;;;;;;;;;1.33;1.00;;;;;22.59;47.34;101174.16;5074402;28;45122;-76
2023/07/19 07:52:03;;;;;;;;;1.00;1.00;;;;;22.45;47.15;101148.97;5092543;28;45080;-75
2023/07/19 07:54:29;;;;;;;;;3.00;1.00;;;;;22.57;47.25;101181.47;5062066;28;45041;-74
2023/07/19 07:56:54;;;;;;;;;3.00;2.00;;;;;22.43;47.41;101156.28;5091433;28;45748;-75
2023/07/19 07:59:20;;;;;;;;;4.00;2.00;;;;;22.64;46.59;101176.81;5092385;28;44951;-76
2023/07/19 08:01:45;;;;;;;;;3.33;2.00;;;;;22.73;46.51;101173.91;5067455;28;45304;-77
2023/07/19 08:04:12;;;;;;;;;4.00;2.00;;;;;22.86;46.05;101177.34;5088215;27;45164;-77
2023/07/19 08:06:38;;;;;;;;;2.67;1.00;;;;;23.01;45.19;101178.88;5089786;28;45591;-78
2023/07/19 08:09:04;;;;;;;;;1.67;1.00;;;;;23.17;44.69;101185.88;5088008;28;45256;-77
2023/07/19 08:11:31;;;;;;;;;2.00;1.00;;;;;23.03;43.97;101162.50;5088552;28;45174;-77
2023/07/19 08:13:57;;;;;;;;;2.00;2.00;;;;;23.21;44.31;101183.09;5090989;28;45310;-76
2023/07/19 08:16:22;;;;;;;;;2.33;1.00;;;;;23.23;44.09;101171.25;5088767;28;45296;-76
2023/07/19 08:18:48;;;;;;;;;1.33;1.33;;;;;23.42;43.71;101187.25;5088331;27;44922;-74
2023/07/19 08:21:13;;;;;;;;;1.00;1.00;;;;;23.51;43.48;101184.31;5068652;28;45236;-75
2023/07/19 08:23:39;;;;;;;;;2.67;2.00;;;;;23.62;43.42;101182.28;5088750;28;44925;-75
2023/07/19 08:26:04;;;;;;;;;5.67;4.00;;;;;23.76;43.37;101179.28;5093417;28;45600;-75
2023/07/19 08:28:29;;;;;;;;;2.00;2.00;;;;;23.80;42.86;101175.53;5090625;27;45363;-77
2023/07/19 08:30:55;;;;;;;;;1.67;1.67;;;;;23.79;42.90;101164.66;5091650;28;45043;-76
2023/07/19 08:33:22;;;;;;;;;3.33;2.33;;;;;23.85;43.20;101176.34;5090245;28;45136;-77
2023/07/19 08:35:50;;;;;;;;;1.00;1.00;;;;;23.80;43.20;101147.34;5092313;28;45779;-76
2023/07/19 08:38:16;;;;;;;;;1.67;1.00;;;;;23.90;43.24;101168.97;5083352;28;45284;-77
2023/07/19 08:41:03;;;;;;;;;2.67;2.67;;;;;23.99;43.17;101181.53;5091217;28;45317;-76
2023/07/19 08:43:32;;;;;;;;;2.67;1.67;;;;;23.99;42.85;101181.53;5068737;28;45182;-74
2023/07/19 08:45:58;;;;;;;;;1.00;1.00;;;;;23.31;42.89;101078.38;5084570;28;45560;-78
2023/07/19 08:48:23;;;;;;;;;2.00;1.33;;;;;23.64;43.21;101144.97;5090779;28;45081;-75
2023/07/19 08:51:00;;;;;;;;;3.00;3.00;;;;;23.78;42.78;101177.41;5072177;28;45441;-76
2023/07/19 08:53:26;;;;;;;;;2.00;2.00;;;;;23.69;42.92;101183.97;5087306;28;45245;-74
2023/07/19 08:55:52;;;;;;;;;2.00;2.00;;;;;23.67;42.49;101198.56;5091699;28;45531;-76
2023/07/19 08:58:18;;;;;;;;;4.33;2.00;;;;;23.28;42.60;101139.34;5072120;28;45496;-76
2023/07/19 09:00:48;;;;;;;;;2.00;2.00;;;;;23.21;42.74;101136.75;5095691;28;45333;-74
2023/07/19 09:03:15;;;;;;;;;2.67;1.33;;;;;23.13;42.91;101112.38;5070019;28;45121;-74
2023/07/19 09:05:47;;;;;;;;;2.67;2.00;;;;;23.24;42.70;101123.97;5087738;28;45154;-75
2023/07/19 09:08:13;;;;;;;;;4.00;1.67;;;;;23.60;41.72;101169.63;5087903;28;45071;-74
2023/07/19 09:10:44;;;;;;;;;1.33;1.00;;;;;23.61;41.68;101169.59;5082805;28;45357;-75
2023/07/19 09:13:09;;;;;;;;;1.00;1.00;;;;;23.74;41.13;101168.38;5078103;28;45456;-75
2023/07/19 09:15:37;;;;;;;;;4.33;3.00;;;;;23.85;40.70;101170.00;5084312;28;45126;-76
2023/07/19 09:18:05;;;;;;;;;3.33;3.00;;;;;23.89;40.49;101160.81;5058336;28;45336;-76
2023/07/19 09:20:34;;;;;;;;;2.00;2.00;;;;;24.04;40.48;101176.84;5089551;27;45549;-75
2023/07/19 09:23:08;;;;;;;;;3.00;1.00;;;;;24.06;40.29;101174.97;5068901;28;45103;-74
2023/07/19 09:25:53;;;;;;;;;2.00;2.00;;;;;24.12;40.13;101168.47;5088133;28;45741;-76
2023/07/19 09:28:25;;;;;;;;;3.00;2.00;;;;;24.12;40.10;101171.19;5090642;28;45172;-77
2023/07/19 09:31:08;;;;;;;;;3.00;2.00;;;;;24.11;40.09;101155.78;5056768;28;45052;-74
2023/07/19 09:33:34;;;;;;;;;3.00;3.00;;;;;24.31;39.82;101159.88;5082012;28;45131;-74
2023/07/19 09:36:03;;;;;;;;;2.00;2.00;;;;;24.42;39.01;101165.97;5090340;28;46419;-74
2023/07/19 09:38:29;;;;;;;;;4.00;3.00;;;;;24.44;39.10;101175.03;5065686;28;45186;-74
2023/07/19 09:40:55;;;;;;;;;2.00;2.00;;;;;24.39;39.34;101156.00;5069507;28;45323;-74
2023/07/19 09:43:21;;;;;;;;;2.00;2.00;;;;;24.49;38.41;101172.19;5087066;28;45293;-74
2023/07/19 09:45:48;;;;;;;;;2.33;2.33;;;;;24.45;38.42;101150.41;5083043;28;46429;-76
2023/07/19 09:48:18;;;;;;;;;2.00;2.00;;;;;24.66;38.25;101180.88;5073180;28;45168;-76
2023/07/19 09:50:49;;;;;;;;;2.00;2.00;;;;;24.65;37.90;101171.78;5092501;28;44923;-73
2023/07/19 09:53:15;;;;;;;;;3.00;3.00;;;;;24.72;38.28;101152.50;5091841;27;45138;-76
2023/07/19 09:55:40;;;;;;;;;6.00;2.00;;;;;24.74;37.90;101153.34;5091988;28;45190;-74
2023/07/19 09:58:12;;;;;;;;;0.00;0.00;;;;;24.86;38.30;101171.25;5089017;28;45066;-74
2023/07/19 10:00:39;;;;;;;;;2.00;2.00;;;;;24.95;38.13;101169.19;5089765;28;45235;-74
2023/07/19 10:03:08;;;;;;;;;2.33;2.33;;;;;25.04;38.00;101173.50;5092327;28;45913;-74
2023/07/19 10:05:42;;;;;;;;;2.33;2.33;;;;;25.13;37.61;101170.53;5091557;28;45937;-75
2023/07/19 10:08:14;;;;;;;;;2.00;2.00;;;;;25.11;37.40;101166.94;5090544;28;44913;-74
2023/07/19 10:10:41;;;;;;;;;0.67;0.67;;;;;24.96;37.20;101146.38;5072278;28;44983;-76
2023/07/19 10:13:10;;;;;;;;;2.00;2.00;;;;;24.92;36.91;101171.13;5089369;28;45272;-75
2023/07/19 10:15:50;;;;;;;;;4.00;2.00;;;;;24.84;36.77;101174.91;5070028;28;47463;-76
2023/07/19 10:18:18;;;;;;;;;4.00;2.67;;;;;24.83;37.22;101166.75;5088210;28;45371;-74
2023/07/19 10:20:59;;;;;;;;;2.33;2.33;;;;;24.85;37.20;101164.91;5090354;27;45289;-75
2023/07/19 10:23:30;;;;;;;;;3.33;3.00;;;;;24.81;37.21;101171.38;5058741;28;45317;-74
2023/07/19 10:25:56;;;;;;;;;4.33;2.00;;;;;24.73;37.75;101167.94;5085791;27;45677;-74
2023/07/19 10:28:26;;;;;;;;;3.33;2.00;;;;;24.73;37.23;101174.34;5088214;28;45150;-74
2023/07/19 10:30:53;;;;;;;;;5.67;2.67;;;;;24.81;37.08;101171.38;5065152;28;45553;-75
2023/07/19 10:33:23;;;;;;;;;1.00;1.00;;;;;24.86;36.53;101166.69;5067653;28;45135;-75
2023/07/19 10:35:52;;;;;;;;;2.00;2.00;;;;;24.49;36.38;101099.31;5066716;28;45724;-77
2023/07/19 10:38:27;;;;;;;;;2.00;2.00;;;;;24.78;36.50;101136.84;5064191;28;45110;-74
2023/07/19 10:41:05;;;;;;;;;3.67;3.67;;;;;24.94;36.00;101140.03;5067572;28;45092;-75
2023/07/19 10:43:33;;;;;;;;;3.67;3.67;;;;;25.08;36.39;101155.16;5072062;28;44978;-74
2023/07/19 10:45:59;;;;;;;;;3.33;1.67;;;;;24.77;36.52;101099.50;5071032;28;45362;-76
2023/07/19 10:48:30;;;;;;;;;2.67;2.33;;;;;25.14;35.88;101171.41;5067810;28;45276;-73
2023/07/19 10:50:57;;;;;;;;;3.00;3.00;;;;;24.95;35.97;101139.13;5071302;28;45245;-76
2023/07/19 10:53:24;;;;;;;;;4.00;4.00;;;;;25.13;35.94;101178.72;5073706;28;45702;-74
2023/07/19 10:55:56;;;;;;;;;4.00;2.67;;;;;25.10;36.23;101158.78;5070257;28;46040;-76
2023/07/19 10:58:30;;;;;;;;;1.33;1.33;;;;;25.19;35.91;101164.91;5067953;28;45308;-76
2023/07/19 11:00:56;;;;;;;;;3.00;3.00;;;;;25.24;35.40;101169.31;5069759;28;45267;-74
2023/07/19 11:03:24;;;;;;;;;1.00;1.00;;;;;25.11;35.36;101156.00;5070521;28;45462;-76
2023/07/19 11:05:53;;;;;;;;;3.00;3.00;;;;;25.24;35.43;101166.59;5072090;28;46524;-75
2023/07/19 11:08:24;;;;;;;;;4.00;4.00;;;;;25.23;35.62;101138.34;5072253;28;44952;-75
2023/07/19 11:10:51;;;;;;;;;3.00;2.67;;;;;25.36;35.60;101152.63;5067153;28;45458;-76
2023/07/19 11:13:18;;;;;;;;;3.00;3.00;;;;;25.49;35.48;101162.25;5067933;28;45504;-76
2023/07/19 11:15:53;;;;;;;;;5.33;5.00;;;;;25.56;35.27;101154.78;5069472;28;45290;-75
2023/07/19 11:18:28;;;;;;;;;3.00;2.00;;;;;25.55;34.98;101121.00;5069924;28;45128;-74
2023/07/19 11:20:54;;;;;;;;;8.33;8.33;;;;;25.87;35.16;101146.53;5069543;28;45114;-75